Time;durP1;ratioP1;P1;durP2;ratioP2;P2;SDS_P1;SDS_P2;PMS_P1;PMS_P2;Temp;Humidity;BMP_temperature;BMP_pressure;BME280_temperature;BME280_humidity;BME280_pressure;Samples;Min_cycle;Max_cycle;Signal;HPM_P1;HPM_P2
2023/01/01 00:02:13;;;;;;;23.60;14.63;;;13.50;99.90;;;;;;5073381;28;20158;-68
2023/01/01 00:04:39;;;;;;;23.27;14.18;;;13.50;99.90;;;;;;5073293;28;20044;-68
2023/01/01 00:07:05;;;;;;;29.08;14.45;;;13.40;99.90;;;;;;5073276;28;20036;-68
2023/01/01 00:12:14;;;;;;;30.20;15.15;;;13.30;99.90;;;;;;5073219;28;20044;-68
2023/01/01 00:14:43;;;;;;;26.38;16.52;;;13.30;99.90;;;;;;5073450;28;20036;-68
2023/01/01 00:17:09;;;;;;;33.30;17.63;;;13.20;99.90;;;;;;5073057;28;20044;-68
2023/01/01 00:19:34;;;;;;;28.70;17.42;;;13.10;99.90;;;;;;5073014;28;20045;-68
2023/01/01 00:22:00;;;;;;;29.50;18.88;;;13.10;99.90;;;;;;5073036;28;20041;-68
2023/01/01 00:24:25;;;;;;;33.47;19.73;;;13.10;99.90;;;;;;5073282;28;20080;-68
2023/01/01 00:26:54;;;;;;;34.10;22.95;;;13.10;99.90;;;;;;5072938;28;20044;-68
2023/01/01 00:29:19;;;;;;;29.60;22.88;;;13.10;99.90;;;;;;5073218;28;20059;-68
2023/01/01 00:31:45;;;;;;;31.35;22.83;;;13.00;99.90;;;;;;5072904;28;20045;-68
2023/01/01 00:34:11;;;;;;;35.10;24.38;;;13.00;99.90;;;;;;5073145;28;20040;-68
2023/01/01 00:36:36;;;;;;;35.67;23.98;;;12.90;99.90;;;;;;5072793;28;20479;-68
2023/01/01 00:39:03;;;;;;;42.00;25.33;;;13.00;99.90;;;;;;5072677;28;20033;-68
2023/01/01 00:41:28;;;;;;;41.08;25.38;;;13.00;99.90;;;;;;5072759;28;20102;-68
2023/01/01 00:43:54;;;;;;;40.92;23.65;;;13.00;99.90;;;;;;5072729;28;20040;-68
2023/01/01 00:46:19;;;;;;;38.88;24.08;;;13.10;99.90;;;;;;5072855;28;20127;-68
2023/01/01 00:48:45;;;;;;;37.53;22.65;;;13.10;99.90;;;;;;5036873;28;1031668;-68
2023/01/01 00:51:10;;;;;;;40.45;23.90;;;13.10;99.90;;;;;;5075079;28;20084;-68
2023/01/01 00:53:36;;;;;;;32.63;23.15;;;13.10;99.90;;;;;;5073573;28;20045;-68
2023/01/01 00:56:03;;;;;;;32.05;20.90;;;13.10;99.90;;;;;;5074627;28;20068;-69
2023/01/01 00:58:28;;;;;;;34.40;20.42;;;13.20;99.90;;;;;;5073393;28;20497;-68
2023/01/01 01:00:54;;;;;;;32.58;20.25;;;13.20;99.90;;;;;;5073685;28;20036;-68
2023/01/01 01:03:32;;;;;;;31.25;20.42;;;13.30;99.90;;;;;;5073341;28;20076;-68
2023/01/01 01:06:02;;;;;;;35.08;21.85;;;13.40;99.90;;;;;;5073235;28;20041;-69
2023/01/01 01:08:30;;;;;;;30.13;20.92;;;13.30;99.90;;;;;;5073273;28;20132;-68
2023/01/01 01:11:14;;;;;;;32.83;20.38;;;13.30;99.90;;;;;;5073181;28;20493;-68
2023/01/01 01:13:41;;;;;;;34.50;20.67;;;13.30;99.90;;;;;;5073173;28;20129;-68
2023/01/01 01:16:18;;;;;;;34.38;21.60;;;13.30;99.90;;;;;;5074534;28;20053;-68
2023/01/01 01:18:44;;;;;;;34.28;21.02;;;13.40;99.90;;;;;;5072225;28;20048;-68
2023/01/01 01:21:14;;;;;;;37.70;21.45;;;13.40;99.90;;;;;;5072983;28;20036;-68
2023/01/01 01:23:40;;;;;;;31.20;20.55;;;13.40;99.90;;;;;;5072950;28;20037;-68
2023/01/01 01:26:14;;;;;;;31.33;21.00;;;13.40;99.90;;;;;;5072833;28;20036;-69
2023/01/01 01:28:40;;;;;;;31.20;19.35;;;13.40;99.90;;;;;;5072807;28;20044;-68
2023/01/01 01:31:06;;;;;;;33.03;19.80;;;13.40;99.90;;;;;;5072751;28;20040;-68
2023/01/01 01:33:31;;;;;;;29.98;20.35;;;13.40;99.90;;;;;;5072719;28;20094;-68
2023/01/01 01:35:57;;;;;;;31.70;20.40;;;13.40;99.90;;;;;;5072863;28;20063;-69
2023/01/01 01:38:23;;;;;;;32.88;19.63;;;13.40;99.90;;;;;;5072827;28;20516;-68
2023/01/01 01:40:48;;;;;;;30.52;19.98;;;13.40;99.90;;;;;;5056026;28;20504;-68
2023/01/01 01:43:24;;;;;;;33.20;20.35;;;13.40;99.90;;;;;;5072554;28;20036;-68
2023/01/01 01:45:55;;;;;;;30.95;18.95;;;13.40;99.90;;;;;;5072832;28;20103;-68
2023/01/01 01:48:22;;;;;;;31.67;19.40;;;13.30;99.90;;;;;;5072380;28;20045;-68
2023/01/01 01:50:51;;;;;;;28.20;19.58;;;13.30;99.90;;;;;;5072745;28;20446;-69
2023/01/01 01:53:23;;;;;;;32.25;20.35;;;13.40;99.90;;;;;;5072404;28;20072;-68
2023/01/01 01:55:53;;;;;;;37.72;21.15;;;13.40;99.90;;;;;;5072372;28;20075;-68
2023/01/01 01:58:19;;;;;;;28.27;19.55;;;13.30;99.90;;;;;;5073230;28;20048;-68
2023/01/01 02:00:46;;;;;;;31.50;18.85;;;13.30;99.90;;;;;;5072267;28;20511;-68
2023/01/01 02:03:21;;;;;;;30.90;18.75;;;13.30;99.90;;;;;;5072264;28;20044;-68
2023/01/01 02:05:48;;;;;;;29.60;17.65;;;13.30;99.90;;;;;;5072522;28;20051;-68
2023/01/01 02:08:14;;;;;;;31.75;17.42;;;13.30;99.90;;;;;;5072044;28;20452;-68
2023/01/01 02:10:40;;;;;;;29.67;19.42;;;13.30;99.90;;;;;;5072393;28;20048;-68
2023/01/01 02:13:06;;;;;;;27.45;17.10;;;13.30;99.90;;;;;;5072079;28;20044;-68
2023/01/01 02:16:01;;;;;;;31.75;16.90;;;13.30;99.90;;;;;;5072042;28;20051;-68
2023/01/01 02:18:45;;;;;;;28.92;17.48;;;13.30;99.90;;;;;;5041488;28;20049;-68
2023/01/01 02:21:16;;;;;;;25.75;16.38;;;13.30;99.90;;;;;;5055387;28;20573;-68
2023/01/01 02:23:59;;;;;;;26.80;14.60;;;13.30;99.90;;;;;;5073019;28;20072;-68
2023/01/01 02:26:44;;;;;;;24.02;14.00;;;13.30;99.90;;;;;;5072180;28;20033;-68
2023/01/01 02:29:45;;;;;;;26.55;13.52;;;13.40;99.90;;;;;;5071939;28;20095;-68
2023/01/01 02:32:13;;;;;;;25.27;11.88;;;13.40;99.90;;;;;;5071907;28;20048;-68
2023/01/01 02:34:45;;;;;;;29.85;13.05;;;13.40;99.90;;;;;;5071878;28;20060;-68
2023/01/01 02:37:14;;;;;;;22.67;11.60;;;13.40;99.90;;;;;;5071826;28;20048;-69
2023/01/01 02:39:49;;;;;;;20.55;10.30;;;13.40;99.90;;;;;;5071747;28;20093;-69
2023/01/01 02:42:16;;;;;;;21.88;10.38;;;13.40;99.90;;;;;;5071825;28;20485;-68
2023/01/01 02:44:46;;;;;;;17.45;10.10;;;13.40;99.90;;;;;;5071768;28;20442;-68
2023/01/01 02:47:16;;;;;;;22.45;10.07;;;13.40;99.90;;;;;;5071652;28;20041;-68
2023/01/01 02:50:08;;;;;;;15.27;9.15;;;13.40;99.90;;;;;;5071877;28;20048;-68
2023/01/01 02:52:55;;;;;;;20.38;8.85;;;13.40;99.90;;;;;;5071391;28;20097;-68
2023/01/01 02:55:36;;;;;;;20.92;8.45;;;13.40;99.90;;;;;;5071936;28;20535;-68
2023/01/01 03:01:26;;;;;;;21.45;8.25;;;13.50;99.90;;;;;;5071609;28;20044;-68
2023/01/01 03:04:18;;;;;;;13.13;7.00;;;13.50;99.90;;;;;;5071603;28;20049;-68
2023/01/01 03:07:05;;;;;;;16.15;8.13;;;13.50;99.90;;;;;;5071458;28;20036;-68
2023/01/01 03:09:54;;;;;;;20.98;6.80;;;13.50;99.90;;;;;;5073373;28;20040;-68
2023/01/01 03:12:38;;;;;;;13.90;6.13;;;13.50;99.90;;;;;;5071536;28;20048;-68
2023/01/01 03:15:22;;;;;;;19.33;6.78;;;13.50;99.90;;;;;;5071520;28;20053;-69
2023/01/01 03:18:03;;;;;;;16.02;5.97;;;13.50;99.90;;;;;;5071651;28;20102;-68
2023/01/01 03:20:32;;;;;;;20.55;6.45;;;13.60;99.90;;;;;;5071506;28;20048;-68
2023/01/01 03:23:02;;;;;;;17.17;5.65;;;13.60;99.90;;;;;;5071664;28;20044;-68
2023/01/01 03:25:48;;;;;;;18.67;5.15;;;13.60;99.90;;;;;;5071375;28;20047;-68
2023/01/01 03:28:18;;;;;;;13.02;4.38;;;13.70;99.90;;;;;;5072524;28;20040;-68
2023/01/01 03:30:47;;;;;;;10.93;4.18;;;13.70;99.90;;;;;;5071357;28;20124;-68
2023/01/01 03:33:33;;;;;;;13.27;4.00;;;13.80;99.90;;;;;;5073114;28;20037;-68
2023/01/01 03:36:07;;;;;;;15.18;4.50;;;13.80;99.90;;;;;;5071264;28;20102;-69
2023/01/01 03:38:48;;;;;;;10.88;3.83;;;13.80;99.90;;;;;;5071199;28;20139;-68
2023/01/01 03:41:22;;;;;;;13.98;3.78;;;13.80;99.90;;;;;;5071545;28;20079;-68
2023/01/01 03:44:02;;;;;;;10.50;3.65;;;13.80;99.90;;;;;;5074887;28;20067;-69
2023/01/01 03:46:32;;;;;;;12.85;3.05;;;13.80;99.90;;;;;;5074805;28;20043;-69
2023/01/01 03:48:59;;;;;;;9.45;3.28;;;13.80;99.90;;;;;;5074638;28;20047;-68
2023/01/01 03:51:49;;;;;;;13.73;3.60;;;13.80;99.90;;;;;;5074757;28;20044;-68
2023/01/01 03:54:54;;;;;;;12.02;3.38;;;13.80;99.90;;;;;;5074671;28;20051;-70
2023/01/01 03:58:02;;;;;;;10.73;2.65;;;13.90;99.90;;;;;;5059355;28;20063;-69
2023/01/01 04:00:34;;;;;;;16.90;3.90;;;13.90;99.90;;;;;;5074347;28;20064;-68
2023/01/01 04:03:23;;;;;;;7.87;2.87;;;13.80;99.90;;;;;;5074612;28;20049;-68
2023/01/01 04:05:50;;;;;;;11.95;3.20;;;13.80;99.90;;;;;;5074560;28;20313;-68
2023/01/01 04:08:16;;;;;;;12.05;3.13;;;13.80;99.90;;;;;;5074367;28;20111;-68
2023/01/01 04:10:55;;;;;;;12.10;2.92;;;13.80;99.90;;;;;;5074400;28;20040;-68
2023/01/01 04:13:21;;;;;;;13.23;2.90;;;13.80;99.90;;;;;;5074368;28;20032;-68
2023/01/01 04:15:47;;;;;;;10.65;2.60;;;13.80;99.90;;;;;;5074537;28;20081;-68
2023/01/01 04:18:12;;;;;;;13.70;3.38;;;13.80;99.90;;;;;;5074082;28;20102;-68
2023/01/01 04:20:38;;;;;;;9.80;2.55;;;13.80;99.90;;;;;;5074249;28;20045;-68
2023/01/01 04:23:03;;;;;;;8.60;2.47;;;13.80;99.90;;;;;;5074227;28;20085;-68
2023/01/01 04:25:29;;;;;;;11.68;3.00;;;13.80;99.90;;;;;;5074140;28;20037;-68
2023/01/01 04:27:57;;;;;;;11.93;3.00;;;13.80;99.90;;;;;;5074046;28;20040;-68
2023/01/01 04:30:23;;;;;;;12.48;2.60;;;13.80;99.90;;;;;;5074267;28;20528;-68
2023/01/01 04:32:48;;;;;;;9.40;3.05;;;13.80;99.90;;;;;;5074254;28;20048;-68
2023/01/01 04:35:14;;;;;;;12.80;2.97;;;13.70;99.90;;;;;;5073978;28;20401;-68
2023/01/01 04:37:41;;;;;;;13.98;4.25;;;13.60;99.90;;;;;;5073845;28;20036;-68
2023/01/01 04:40:08;;;;;;;9.18;2.30;;;13.50;99.90;;;;;;5073796;28;20123;-68
2023/01/01 04:42:34;;;;;;;11.48;2.38;;;13.40;99.90;;;;;;5073796;28;20537;-69
2023/01/01 04:45:00;;;;;;;12.13;2.92;;;13.40;99.90;;;;;;5074043;28;20116;-68
2023/01/01 04:47:26;;;;;;;11.45;3.17;;;13.40;99.90;;;;;;5073907;28;20449;-68
2023/01/01 04:49:52;;;;;;;10.23;2.67;;;13.40;99.90;;;;;;5074822;28;20055;-68
2023/01/01 04:52:18;;;;;;;10.50;2.38;;;13.30;99.90;;;;;;5073612;28;20041;-68
2023/01/01 04:54:43;;;;;;;10.43;2.40;;;13.30;99.90;;;;;;5072402;28;20044;-68
2023/01/01 04:57:09;;;;;;;8.73;2.05;;;13.20;99.90;;;;;;5073729;28;20086;-68
2023/01/01 04:59:34;;;;;;;12.65;2.85;;;13.20;99.90;;;;;;5073371;28;20486;-68
2023/01/01 05:02:00;;;;;;;13.63;3.40;;;13.20;99.90;;;;;;5073468;28;20105;-68
2023/01/01 05:04:26;;;;;;;7.80;2.80;;;13.20;99.90;;;;;;5073365;28;20076;-68
2023/01/01 05:06:51;;;;;;;9.55;2.38;;;13.10;99.90;;;;;;5073227;28;20045;-68
2023/01/01 05:09:17;;;;;;;11.35;2.50;;;13.10;99.90;;;;;;5073277;28;20041;-68
2023/01/01 05:11:42;;;;;;;7.72;2.40;;;13.10;99.90;;;;;;5073446;28;20048;-68
2023/01/01 05:14:08;;;;;;;7.65;2.00;;;13.10;99.90;;;;;;5073480;28;20048;-68
2023/01/01 05:16:36;;;;;;;11.85;2.17;;;13.20;99.90;;;;;;5073314;28;20076;-69
2023/01/01 05:19:02;;;;;;;13.27;2.92;;;13.20;99.90;;;;;;5072964;28;20044;-68
2023/01/01 05:21:32;;;;;;;8.57;2.58;;;13.20;99.90;;;;;;5073034;28;20094;-68
2023/01/01 05:24:01;;;;;;;11.65;1.88;;;13.20;99.90;;;;;;5073262;28;20427;-68
2023/01/01 05:26:30;;;;;;;7.38;1.42;;;13.20;99.90;;;;;;5073133;28;20047;-68
2023/01/01 05:28:56;;;;;;;10.10;1.75;;;13.20;99.90;;;;;;5072884;28;20531;-68
2023/01/01 05:31:25;;;;;;;6.65;1.70;;;13.30;99.90;;;;;;5072866;28;20048;-68
2023/01/01 05:33:51;;;;;;;8.30;2.10;;;13.20;99.90;;;;;;5073034;28;20512;-69
2023/01/01 05:36:26;;;;;;;8.93;2.45;;;13.20;99.90;;;;;;5072687;28;20051;-69
2023/01/01 05:38:52;;;;;;;8.57;2.20;;;13.20;99.90;;;;;;5055925;28;20116;-68
2023/01/01 05:41:20;;;;;;;8.10;2.35;;;13.20;99.90;;;;;;5072645;28;20093;-69
2023/01/01 05:43:46;;;;;;;9.82;1.80;;;13.20;99.90;;;;;;5072611;28;20040;-68
2023/01/01 05:46:17;;;;;;;8.60;2.22;;;13.10;99.90;;;;;;5072739;28;20094;-69
2023/01/01 05:48:44;;;;;;;8.85;2.53;;;13.10;99.90;;;;;;5072340;28;20040;-68
2023/01/01 05:51:12;;;;;;;6.85;1.67;;;13.10;99.90;;;;;;5072446;28;20052;-68
2023/01/01 05:53:38;;;;;;;7.07;1.55;;;13.10;99.90;;;;;;5072401;28;20047;-68
2023/01/01 05:56:04;;;;;;;7.30;1.23;;;13.00;99.90;;;;;;5072356;28;20044;-69
2023/01/01 05:58:31;;;;;;;6.28;1.20;;;13.00;99.90;;;;;;5072309;28;20047;-68
2023/01/01 06:01:24;;;;;;;9.15;1.35;;;13.00;99.90;;;;;;5072545;28;20048;-68
2023/01/01 06:03:51;;;;;;;5.37;1.20;;;13.00;99.90;;;;;;5071781;28;20520;-68
2023/01/01 06:06:19;;;;;;;3.90;0.90;;;12.90;99.90;;;;;;5072075;28;20285;-69
2023/01/01 06:08:56;;;;;;;6.95;1.33;;;12.90;99.90;;;;;;5072471;28;20135;-68
2023/01/01 06:11:22;;;;;;;4.75;0.93;;;12.90;99.90;;;;;;5072172;28;20037;-69
2023/01/01 06:13:51;;;;;;;5.72;1.00;;;12.80;99.90;;;;;;5072378;28;20567;-68
2023/01/01 06:16:17;;;;;;;3.65;1.05;;;12.80;99.90;;;;;;5072304;28;20048;-68
2023/01/01 06:18:42;;;;;;;6.65;1.27;;;12.80;99.90;;;;;;5071995;28;20394;-68
2023/01/01 06:21:17;;;;;;;6.00;0.93;;;12.80;99.90;;;;;;5072313;28;20052;-68
2023/01/01 06:23:42;;;;;;;6.35;1.20;;;12.70;99.90;;;;;;5072240;28;20063;-69
2023/01/01 06:26:11;;;;;;;7.57;1.35;;;12.70;99.90;;;;;;5072198;28;20481;-69
2023/01/01 06:28:38;;;;;;;5.80;1.40;;;12.70;99.90;;;;;;5071965;28;20049;-69
2023/01/01 06:31:05;;;;;;;5.47;1.38;;;12.70;99.90;;;;;;5072180;28;20044;-68
2023/01/01 06:33:31;;;;;;;7.40;1.55;;;12.70;99.90;;;;;;5071873;28;20074;-69
2023/01/01 06:35:57;;;;;;;5.35;1.20;;;12.70;99.90;;;;;;5072146;28;20052;-68
2023/01/01 06:38:23;;;;;;;7.93;1.55;;;12.70;99.90;;;;;;5071705;28;20462;-68
2023/01/01 06:41:00;;;;;;;10.25;1.63;;;12.60;99.90;;;;;;5073059;28;20040;-68
2023/01/01 06:43:26;;;;;;;8.15;1.42;;;12.60;99.90;;;;;;5072040;28;20040;-68
2023/01/01 06:46:14;;;;;;;6.03;1.25;;;12.60;99.90;;;;;;5055298;28;20392;-68
2023/01/01 06:48:40;;;;;;;5.93;1.40;;;12.60;99.90;;;;;;5071633;28;20044;-68
2023/01/01 06:51:12;;;;;;;6.82;1.40;;;12.50;99.90;;;;;;5071993;28;20128;-68
2023/01/01 06:53:38;;;;;;;7.32;1.20;;;12.50;99.90;;;;;;5071935;28;20557;-68
2023/01/01 06:56:05;;;;;;;10.07;1.35;;;12.40;99.90;;;;;;5071980;28;20067;-69
2023/01/01 06:58:30;;;;;;;5.88;1.45;;;12.40;99.90;;;;;;5071586;28;20045;-68
2023/01/01 07:01:10;;;;;;;6.53;1.17;;;12.40;99.90;;;;;;5071677;28;20127;-68
2023/01/01 07:03:37;;;;;;;8.20;1.50;;;12.40;99.90;;;;;;5071883;28;20044;-68
2023/01/01 07:06:03;;;;;;;7.50;1.73;;;12.30;99.90;;;;;;5071482;28;20037;-69
2023/01/01 07:08:29;;;;;;;7.50;1.60;;;12.30;99.90;;;;;;5071552;28;20041;-68
2023/01/01 07:10:56;;;;;;;9.18;1.60;;;12.30;99.90;;;;;;5071736;28;20045;-68
2023/01/01 07:13:23;;;;;;;5.72;1.65;;;12.30;99.90;;;;;;5071495;28;20049;-68
2023/01/01 07:15:48;;;;;;;12.75;2.50;;;12.30;99.90;;;;;;5071481;28;20055;-68
2023/01/01 07:18:14;;;;;;;10.95;1.70;;;12.30;99.90;;;;;;5073989;28;20036;-68
2023/01/01 07:20:39;;;;;;;11.73;1.88;;;12.30;99.90;;;;;;5075361;28;20127;-68
2023/01/01 07:23:05;;;;;;;10.48;2.85;;;12.20;99.90;;;;;;5075312;28;20048;-68
2023/01/01 07:25:31;;;;;;;13.65;2.47;;;12.30;99.90;;;;;;5075262;28;20040;-68
2023/01/01 07:27:56;;;;;;;13.48;2.53;;;12.20;99.90;;;;;;5075141;28;20090;-68
2023/01/01 07:30:22;;;;;;;9.40;1.50;;;12.20;99.90;;;;;;5075165;28;20188;-68
2023/01/01 07:32:53;;;;;;;10.65;2.25;;;12.20;99.90;;;;;;5075135;28;20040;-68
2023/01/01 07:35:19;;;;;;;11.25;2.55;;;12.20;99.90;;;;;;5075146;28;20127;-68
2023/01/01 07:37:44;;;;;;;9.88;1.95;;;12.10;99.90;;;;;;5075008;28;20072;-69
2023/01/01 07:40:10;;;;;;;10.82;2.05;;;12.10;99.90;;;;;;5074885;28;20045;-69
2023/01/01 07:42:36;;;;;;;11.77;1.95;;;12.10;99.90;;;;;;5075214;28;20036;-68
2023/01/01 07:45:02;;;;;;;12.45;2.45;;;12.10;99.90;;;;;;5074911;28;20390;-69
2023/01/01 07:47:27;;;;;;;8.68;1.65;;;12.10;99.90;;;;;;5074786;28;20041;-68
2023/01/01 07:49:53;;;;;;;11.02;2.00;;;12.10;99.90;;;;;;5074722;28;20036;-68
2023/01/01 07:52:19;;;;;;;13.18;2.97;;;12.10;99.90;;;;;;5074770;28;20115;-68
2023/01/01 07:54:44;;;;;;;12.07;2.00;;;12.10;99.90;;;;;;5074659;28;20080;-68
2023/01/01 07:57:10;;;;;;;15.02;2.45;;;12.00;99.90;;;;;;5074615;28;20052;-68
2023/01/01 07:59:36;;;;;;;12.23;1.95;;;12.00;99.90;;;;;;5074562;28;20041;-68
2023/01/01 08:02:02;;;;;;;14.45;2.47;;;12.00;99.90;;;;;;5075839;28;20040;-68
2023/01/01 08:04:27;;;;;;;16.02;2.22;;;12.00;99.90;;;;;;5074759;28;20041;-68
2023/01/01 08:06:53;;;;;;;11.80;2.53;;;12.00;99.90;;;;;;5074711;28;20124;-69
2023/01/01 08:09:18;;;;;;;14.52;2.30;;;12.00;99.90;;;;;;5074439;28;20512;-68
2023/01/01 08:11:44;;;;;;;14.52;2.90;;;12.00;99.90;;;;;;5074408;28;20093;-68
2023/01/01 08:14:10;;;;;;;9.90;2.67;;;12.00;99.90;;;;;;5074349;28;20072;-68
2023/01/01 08:16:36;;;;;;;11.60;2.47;;;11.90;99.90;;;;;;5074277;28;20048;-69
2023/01/01 08:19:01;;;;;;;11.48;2.65;;;11.90;99.90;;;;;;5074225;28;20045;-69
2023/01/01 08:21:27;;;;;;;8.27;2.15;;;11.90;99.90;;;;;;5074715;28;20120;-68
2023/01/01 08:23:52;;;;;;;11.52;2.20;;;11.90;99.90;;;;;;5074572;28;20071;-68
2023/01/01 08:26:30;;;;;;;11.13;1.92;;;11.80;99.90;;;;;;5074275;28;20485;-69
2023/01/01 08:28:56;;;;;;;13.75;2.78;;;11.80;99.90;;;;;;5073934;28;20055;-68
2023/01/01 08:31:23;;;;;;;12.15;2.10;;;11.80;99.90;;;;;;5074337;28;20059;-68
2023/01/01 08:33:48;;;;;;;13.23;2.25;;;11.80;99.90;;;;;;5074053;28;20481;-68
2023/01/01 08:36:15;;;;;;;10.05;2.17;;;11.80;99.90;;;;;;5073894;28;20123;-69
2023/01/01 08:38:41;;;;;;;13.32;2.08;;;11.80;99.90;;;;;;5073967;28;20045;-68
2023/01/01 08:41:07;;;;;;;12.32;2.28;;;11.70;99.90;;;;;;5074864;28;20079;-68
2023/01/01 08:43:32;;;;;;;14.52;2.63;;;11.80;99.90;;;;;;5073832;28;20542;-68
2023/01/01 08:45:58;;;;;;;13.82;2.08;;;11.70;99.90;;;;;;5073737;28;20063;-68
2023/01/01 08:48:23;;;;;;;13.63;3.10;;;11.70;99.90;;;;;;5073545;28;20083;-68
2023/01/01 08:50:53;;;;;;;15.27;2.58;;;11.70;99.90;;;;;;5074060;28;20093;-68
2023/01/01 08:53:19;;;;;;;13.88;2.60;;;11.70;99.90;;;;;;5073653;28;20115;-68
2023/01/01 08:55:44;;;;;;;15.07;2.55;;;11.70;99.90;;;;;;5073735;28;20119;-68
2023/01/01 08:58:10;;;;;;;13.10;1.90;;;11.70;99.90;;;;;;5073679;28;20169;-68
2023/01/01 09:00:35;;;;;;;10.02;2.53;;;11.70;99.90;;;;;;5073735;28;20041;-68
2023/01/01 09:03:01;;;;;;;10.52;2.10;;;11.70;99.90;;;;;;5073474;28;20523;-68
2023/01/01 09:05:26;;;;;;;12.75;2.55;;;11.70;99.90;;;;;;5073673;28;20033;-68
2023/01/01 09:07:52;;;;;;;10.68;2.38;;;11.70;99.90;;;;;;5073290;28;20450;-69
2023/01/01 09:10:17;;;;;;;10.82;2.03;;;11.70;99.90;;;;;;5073297;28;20056;-68
2023/01/01 09:12:43;;;;;;;12.38;1.90;;;11.70;99.90;;;;;;5073277;28;20050;-68
2023/01/01 09:15:15;;;;;;;9.63;2.03;;;11.70;99.90;;;;;;5073184;28;20048;-68
2023/01/01 09:17:41;;;;;;;8.65;2.00;;;11.70;99.90;;;;;;5073125;28;20037;-68
2023/01/01 09:20:07;;;;;;;11.27;2.30;;;11.70;99.90;;;;;;5073060;28;20056;-68
2023/01/01 09:22:33;;;;;;;12.02;2.35;;;11.70;99.90;;;;;;5073070;28;20048;-68
2023/01/01 09:24:59;;;;;;;15.88;2.25;;;11.70;99.90;;;;;;5073024;28;20032;-68
2023/01/01 09:27:24;;;;;;;11.52;2.33;;;11.70;99.90;;;;;;5072856;28;20090;-69
2023/01/01 09:29:50;;;;;;;14.27;2.17;;;11.70;99.90;;;;;;5072862;28;20078;-68
2023/01/01 09:32:15;;;;;;;13.45;2.47;;;11.70;99.90;;;;;;5073124;28;20040;-68
2023/01/01 09:34:41;;;;;;;15.32;2.65;;;11.70;99.90;;;;;;5072788;28;20520;-68
2023/01/01 09:37:06;;;;;;;13.93;2.60;;;11.70;99.90;;;;;;5072941;28;20051;-68
2023/01/01 09:39:32;;;;;;;13.98;2.25;;;11.70;99.90;;;;;;5072031;28;20543;-68
2023/01/01 09:42:18;;;;;;;13.75;2.08;;;11.70;99.90;;;;;;5074148;28;20119;-68
2023/01/01 09:44:44;;;;;;;12.70;2.20;;;11.70;99.90;;;;;;5072692;28;20036;-68
2023/01/01 09:47:20;;;;;;;18.85;2.20;;;11.70;99.90;;;;;;5072805;28;20194;-68
2023/01/01 09:49:47;;;;;;;13.15;2.25;;;11.70;99.90;;;;;;5072716;28;20094;-68
2023/01/01 09:52:15;;;;;;;16.63;2.33;;;11.70;99.90;;;;;;5072487;28;20053;-68
2023/01/01 09:54:51;;;;;;;16.27;2.53;;;11.70;99.90;;;;;;5072398;28;20512;-69
2023/01/01 09:57:17;;;;;;;15.73;2.30;;;11.70;99.90;;;;;;5072359;28;20040;-68
2023/01/01 09:59:43;;;;;;;14.55;2.72;;;11.70;99.90;;;;;;5072259;28;20048;-68
2023/01/01 10:02:31;;;;;;;17.75;3.30;;;11.70;99.90;;;;;;5072328;28;20046;-68
2023/01/01 10:04:57;;;;;;;9.38;1.70;;;11.70;99.90;;;;;;5072302;28;20374;-68
2023/01/01 10:07:35;;;;;;;12.38;2.30;;;11.70;99.90;;;;;;5072407;28;20046;-68
2023/01/01 10:10:34;;;;;;;12.05;2.33;;;11.70;99.90;;;;;;5072190;28;20556;-68
2023/01/01 10:13:06;;;;;;;9.73;2.10;;;11.70;99.90;;;;;;5072460;28;20048;-68
2023/01/01 10:15:44;;;;;;;12.52;2.50;;;11.70;99.90;;;;;;5072108;28;20045;-68
2023/01/01 10:18:18;;;;;;;11.60;1.98;;;11.70;99.90;;;;;;5072004;28;20048;-68
2023/01/01 10:21:03;;;;;;;11.93;2.33;;;11.70;99.90;;;;;;5072349;28;20086;-68
2023/01/01 10:23:39;;;;;;;16.27;2.90;;;11.70;99.90;;;;;;5072343;28;20072;-68
2023/01/01 10:26:12;;;;;;;11.60;2.35;;;11.70;99.90;;;;;;5071975;28;20051;-68
2023/01/01 10:28:49;;;;;;;;;;;11.70;99.90;;;;;;5072706;28;20046;-68
2023/01/01 10:31:38;;;;;;;11.80;2.42;;;11.60;99.90;;;;;;5072229;28;20007;-68
2023/01/01 10:34:24;;;;;;;16.20;3.63;;;11.70;99.90;;;;;;5066551;28;20056;-68
2023/01/01 10:36:53;;;;;;;19.05;2.40;;;11.80;99.90;;;;;;5072081;28;20124;-68
2023/01/01 10:39:19;;;;;;;16.75;2.30;;;11.80;99.90;;;;;;5071748;28;20045;-68
2023/01/01 10:41:45;;;;;;;12.20;2.25;;;11.90;99.90;;;;;;5072042;28;20082;-68
2023/01/01 10:44:13;;;;;;;13.77;1.92;;;11.90;99.90;;;;;;5071797;28;20036;-68
2023/01/01 10:46:43;;;;;;;10.75;2.45;;;12.00;99.90;;;;;;5071656;28;20382;-68
2023/01/01 10:49:12;;;;;;;14.38;2.92;;;12.00;99.90;;;;;;5071616;28;20051;-68
2023/01/01 10:51:44;;;;;;;15.00;2.00;;;12.10;99.90;;;;;;5074843;28;20143;-68
2023/01/01 10:54:36;;;;;;;8.57;1.90;;;12.10;99.90;;;;;;5075915;28;20483;-68
2023/01/01 10:57:27;;;;;;;9.95;1.75;;;12.10;99.90;;;;;;5075755;28;20494;-68
2023/01/01 10:59:53;;;;;;;11.23;2.13;;;12.10;99.90;;;;;;5075818;28;20501;-68
2023/01/01 11:02:23;;;;;;;14.52;2.15;;;12.10;99.90;;;;;;5075768;28;20062;-69
2023/01/01 11:04:50;;;;;;;11.60;1.80;;;12.20;99.90;;;;;;5075744;28;20075;-68
2023/01/01 11:07:32;;;;;;;14.57;2.75;;;12.20;99.90;;;;;;5076274;28;20119;-68
2023/01/01 11:10:03;;;;;;;11.98;1.92;;;12.10;99.90;;;;;;5058931;28;20041;-68
2023/01/01 11:12:34;;;;;;;12.32;2.85;;;12.20;99.90;;;;;;5076046;28;20569;-68
2023/01/01 11:15:00;;;;;;;14.27;2.95;;;12.10;99.90;;;;;;5075587;28;20080;-69
2023/01/01 11:17:29;;;;;;;14.75;2.70;;;12.10;99.90;;;;;;5075657;28;20044;-68
2023/01/01 11:19:57;;;;;;;13.73;2.90;;;12.10;99.90;;;;;;5075351;28;20040;-68
2023/01/01 11:22:47;;;;;;;13.52;2.70;;;12.10;99.90;;;;;;5076599;28;20041;-68
2023/01/01 11:25:21;;;;;;;14.68;2.38;;;12.10;99.90;;;;;;5075316;28;20047;-68
2023/01/01 11:27:47;;;;;;;14.95;2.80;;;12.20;99.90;;;;;;5075448;28;20543;-68
2023/01/01 11:30:26;;;;;;;17.00;2.40;;;12.20;99.90;;;;;;5075136;28;20093;-68
2023/01/01 11:32:57;;;;;;;21.08;3.33;;;12.30;99.90;;;;;;5075134;28;20382;-71
2023/01/01 11:35:26;;;;;;;13.48;2.78;;;12.40;99.90;;;;;;5075380;28;20405;-70
2023/01/01 11:37:53;;;;;;;13.90;2.33;;;12.40;99.90;;;;;;5075004;28;20036;-70
2023/01/01 11:40:35;;;;;;;12.65;2.55;;;12.40;99.90;;;;;;5074982;28;20040;-71
2023/01/01 11:43:03;;;;;;;12.90;2.70;;;12.40;99.90;;;;;;5058319;28;20047;-70
2023/01/01 11:45:37;;;;;;;11.65;2.40;;;12.40;99.90;;;;;;5074920;28;20493;-70
2023/01/01 11:48:11;;;;;;;12.93;2.42;;;12.40;99.90;;;;;;5074908;28;20105;-71
2023/01/01 11:50:47;;;;;;;13.98;2.58;;;12.40;99.90;;;;;;5074876;28;20045;-70
2023/01/01 11:53:22;;;;;;;11.93;2.53;;;12.40;99.90;;;;;;5074809;28;20489;-70
2023/01/01 11:55:52;;;;;;;11.60;2.17;;;12.50;99.90;;;;;;5074668;28;20406;-70
2023/01/01 11:58:39;;;;;;;16.08;2.80;;;12.60;99.90;;;;;;5074589;28;20078;-71
2023/01/01 12:01:27;;;;;;;14.55;2.75;;;12.70;99.90;;;;;;5074943;28;20040;-71
2023/01/01 12:04:14;;;;;;;15.40;3.10;;;12.90;99.90;;;;;;5074068;28;20036;-71
2023/01/01 12:06:40;;;;;;;15.63;2.45;;;13.30;99.90;;;;;;5074511;28;20528;-70
2023/01/01 12:09:14;;;;;;;9.27;2.60;;;13.70;99.90;;;;;;5074792;28;20080;-70
2023/01/01 12:12:01;;;;;;;11.38;2.53;;;14.10;99.90;;;;;;5074705;28;20101;-71
2023/01/01 12:14:45;;;;;;;14.90;2.25;;;14.40;99.90;;;;;;5074448;28;20148;-71
2023/01/01 12:17:18;;;;;;;12.95;2.58;;;14.20;99.90;;;;;;5074243;28;20459;-71
2023/01/01 12:19:54;;;;;;;;;;;14.00;99.90;;;;;;5058143;28;20075;-71
2023/01/01 12:22:20;;;;;;;14.93;2.65;;;13.70;99.90;;;;;;5074352;28;19924;-71
2023/01/01 12:24:47;;;;;;;13.63;2.28;;;13.30;99.90;;;;;;5074216;28;20044;-71
2023/01/01 12:27:34;;;;;;;14.68;2.88;;;13.10;99.90;;;;;;5074339;28;20036;-71
2023/01/01 12:30:13;;;;;;;17.58;2.60;;;12.90;99.90;;;;;;5074868;28;20041;-71
2023/01/01 12:33:16;;;;;;;17.10;2.65;;;12.70;99.90;;;;;;5074490;28;20040;-71
2023/01/01 12:36:01;;;;;;;11.98;2.20;;;12.60;99.90;;;;;;5074007;28;20386;-71
2023/01/01 12:38:46;;;;;;;13.77;2.30;;;12.60;99.90;;;;;;5074148;28;20063;-71
2023/01/01 12:41:31;;;;;;;14.05;3.08;;;12.60;99.90;;;;;;5074006;28;20119;-71
2023/01/01 12:44:24;;;;;;;16.15;2.70;;;12.60;99.90;;;;;;5073994;28;20032;-71
2023/01/01 12:47:05;;;;;;;15.55;3.28;;;12.50;99.90;;;;;;5073864;28;20075;-71
2023/01/01 12:50:12;;;;;;;12.73;2.60;;;12.50;99.90;;;;;;5073988;28;20505;-71
2023/01/01 12:53:22;;;;;;;14.32;2.65;;;12.40;99.90;;;;;;5051455;28;20044;-71
2023/01/01 12:56:32;;;;;;;15.20;2.78;;;12.40;99.90;;;;;;5036109;28;20041;-72
2023/01/01 12:59:11;;;;;;;14.43;2.70;;;12.30;99.90;;;;;;5033145;28;20628;-72
2023/01/01 13:01:38;;;;;;;16.77;2.70;;;12.20;99.90;;;;;;5067910;28;20449;-71
2023/01/01 13:04:09;;;;;;;17.00;2.80;;;12.20;99.90;;;;;;5073483;28;20043;-71
2023/01/01 13:06:44;;;;;;;14.23;2.95;;;12.20;99.90;;;;;;5073339;28;20383;-71